sensor_id;sensor_type;location;lat;lon;timestamp;pressure;altitude;pressure_sealevel;temperature;humidity
3260;BME280;68938;48.150;14.004;2023-05-22T00:01:54;97761.34;;;20.82;55.29
3260;BME280;68938;48.150;14.004;2023-05-22T00:04:21;97765.47;;;20.85;55.06
3260;BME280;68938;48.150;14.004;2023-05-22T00:06:48;97761.22;;;20.83;55.17
3260;BME280;68938;48.150;14.004;2023-05-22T00:09:15;97769.03;;;20.72;55.52
3260;BME280;68938;48.150;14.004;2023-05-22T00:11:42;97770.69;;;20.73;55.15
3260;BME280;68938;48.150;14.004;2023-05-22T00:14:09;97769.97;;;20.71;55.75
3260;BME280;68938;48.150;14.004;2023-05-22T00:16:36;97768.91;;;20.74;55.63
3260;BME280;68938;48.150;14.004;2023-05-22T00:19:03;97769.50;;;20.77;55.48
3260;BME280;68938;48.150;14.004;2023-05-22T00:21:30;97759.91;;;20.67;55.71
3260;BME280;68938;48.150;14.004;2023-05-22T00:23:57;97765.94;;;20.67;55.47
3260;BME280;68938;48.150;14.004;2023-05-22T00:26:24;97758.97;;;20.56;55.88
3260;BME280;68938;48.150;14.004;2023-05-22T00:28:51;97763.81;;;20.61;55.92
3260;BME280;68938;48.150;14.004;2023-05-22T00:31:18;97763.34;;;20.67;55.32
3260;BME280;68938;48.150;14.004;2023-05-22T00:33:45;97777.09;;;20.69;55.33
3260;BME280;68938;48.150;14.004;2023-05-22T00:36:12;97754.34;;;20.60;55.81
3260;BME280;68938;48.150;14.004;2023-05-22T00:38:39;97760.03;;;20.65;55.83
3260;BME280;68938;48.150;14.004;2023-05-22T00:41:06;97755.06;;;20.62;55.39
3260;BME280;68938;48.150;14.004;2023-05-22T00:43:33;97758.56;;;20.50;56.52
3260;BME280;68938;48.150;14.004;2023-05-22T00:46:00;97754.63;;;20.44;56.57
3260;BME280;68938;48.150;14.004;2023-05-22T00:48:27;97753.47;;;20.48;56.11
3260;BME280;68938;48.150;14.004;2023-05-22T00:50:56;97738.78;;;20.47;55.78
3260;BME280;68938;48.150;14.004;2023-05-22T00:53:24;97749.50;;;20.55;55.58
3260;BME280;68938;48.150;14.004;2023-05-22T00:55:52;97741.91;;;20.52;55.94
3260;BME280;68938;48.150;14.004;2023-05-22T00:58:20;97747.69;;;20.45;56.79
3260;BME280;68938;48.150;14.004;2023-05-22T01:00:47;97749.44;;;20.44;56.14
3260;BME280;68938;48.150;14.004;2023-05-22T01:03:14;97748.00;;;20.29;57.12
3260;BME280;68938;48.150;14.004;2023-05-22T01:05:42;97751.22;;;20.32;57.20
3260;BME280;68938;48.150;14.004;2023-05-22T01:08:09;97752.75;;;20.35;56.16
3260;BME280;68938;48.150;14.004;2023-05-22T01:10:38;97763.03;;;20.36;56.62
3260;BME280;68938;48.150;14.004;2023-05-22T01:33:36;97753.78;;;20.21;56.56
3260;BME280;68938;48.150;14.004;2023-05-22T01:36:08;97752.13;;;20.20;56.60
3260;BME280;68938;48.150;14.004;2023-05-22T01:38:40;97753.44;;;20.15;56.71
3260;BME280;68938;48.150;14.004;2023-05-22T01:41:08;97751.28;;;20.08;56.70
3260;BME280;68938;48.150;14.004;2023-05-22T01:43:36;97752.34;;;20.06;56.64
3260;BME280;68938;48.150;14.004;2023-05-22T01:46:04;97740.84;;;19.97;57.85
3260;BME280;68938;48.150;14.004;2023-05-22T01:48:32;97740.34;;;19.92;57.94
3260;BME280;68938;48.150;14.004;2023-05-22T01:51:04;97735.97;;;19.93;57.53
3260;BME280;68938;48.150;14.004;2023-05-22T01:53:50;97731.47;;;19.83;57.94
3260;BME280;68938;48.150;14.004;2023-05-22T01:56:29;97733.09;;;19.84;57.80
3260;BME280;68938;48.150;14.004;2023-05-22T01:59:07;97725.16;;;19.86;58.20
3260;BME280;68938;48.150;14.004;2023-05-22T02:01:40;97726.25;;;19.83;58.07
3260;BME280;68938;48.150;14.004;2023-05-22T02:04:09;97721.03;;;19.83;58.20
3260;BME280;68938;48.150;14.004;2023-05-22T02:06:37;97723.06;;;19.80;58.16
3260;BME280;68938;48.150;14.004;2023-05-22T02:09:06;97729.91;;;19.81;58.53
3260;BME280;68938;48.150;14.004;2023-05-22T02:11:36;97728.25;;;19.80;58.25
3260;BME280;68938;48.150;14.004;2023-05-22T02:14:05;97724.78;;;19.79;58.11
3260;BME280;68938;48.150;14.004;2023-05-22T02:16:32;97727.88;;;19.73;58.32
3260;BME280;68938;48.150;14.004;2023-05-22T02:19:02;97724.31;;;19.74;58.64
3260;BME280;68938;48.150;14.004;2023-05-22T02:21:29;97733.31;;;19.70;58.43
3260;BME280;68938;48.150;14.004;2023-05-22T02:23:56;97734.13;;;19.71;58.48
3260;BME280;68938;48.150;14.004;2023-05-22T02:26:23;97728.63;;;19.62;58.25
3260;BME280;68938;48.150;14.004;2023-05-22T02:28:50;97736.66;;;19.59;58.17
3260;BME280;68938;48.150;14.004;2023-05-22T02:31:17;97713.13;;;19.37;58.97
3260;BME280;68938;48.150;14.004;2023-05-22T02:33:44;97721.38;;;19.31;59.39
3260;BME280;68938;48.150;14.004;2023-05-22T02:36:11;97736.06;;;19.32;59.65
3260;BME280;68938;48.150;14.004;2023-05-22T02:38:39;97737.41;;;19.25;60.05
3260;BME280;68938;48.150;14.004;2023-05-22T02:41:06;97737.88;;;19.18;59.48
3260;BME280;68938;48.150;14.004;2023-05-22T02:43:33;97720.44;;;19.08;59.35
3260;BME280;68938;48.150;14.004;2023-05-22T02:46:00;97726.69;;;19.05;59.80
3260;BME280;68938;48.150;14.004;2023-05-22T02:48:27;97736.25;;;19.05;59.60
3260;BME280;68938;48.150;14.004;2023-05-22T02:50:54;97730.88;;;18.95;60.21
3260;BME280;68938;48.150;14.004;2023-05-22T02:53:21;97727.88;;;18.88;60.70
3260;BME280;68938;48.150;14.004;2023-05-22T02:55:48;97720.63;;;18.81;60.45
3260;BME280;68938;48.150;14.004;2023-05-22T02:58:16;97726.03;;;18.78;60.69
3260;BME280;68938;48.150;14.004;2023-05-22T03:00:42;97722.09;;;18.72;60.11
3260;BME280;68938;48.150;14.004;2023-05-22T03:03:09;97730.63;;;18.74;60.57
3260;BME280;68938;48.150;14.004;2023-05-22T03:05:37;97726.97;;;18.64;60.50
3260;BME280;68938;48.150;14.004;2023-05-22T03:08:04;97736.53;;;18.63;60.13
3260;BME280;68938;48.150;14.004;2023-05-22T03:10:31;97742.13;;;18.57;60.70
3260;BME280;68938;48.150;14.004;2023-05-22T03:12:58;97738.41;;;18.48;61.49
3260;BME280;68938;48.150;14.004;2023-05-22T03:15:24;97734.75;;;18.38;61.09
3260;BME280;68938;48.150;14.004;2023-05-22T03:17:51;97736.53;;;18.38;60.85
3260;BME280;68938;48.150;14.004;2023-05-22T03:20:18;97747.88;;;18.37;61.33
3260;BME280;68938;48.150;14.004;2023-05-22T03:22:45;97742.47;;;18.27;61.91
3260;BME280;68938;48.150;14.004;2023-05-22T03:25:12;97738.06;;;18.15;62.43
3260;BME280;68938;48.150;14.004;2023-05-22T03:27:39;97743.69;;;18.09;62.56
3260;BME280;68938;48.150;14.004;2023-05-22T03:30:07;97755.75;;;18.10;62.47
3260;BME280;68938;48.150;14.004;2023-05-22T03:32:34;97755.91;;;17.94;63.35
3260;BME280;68938;48.150;14.004;2023-05-22T03:35:02;97748.41;;;17.76;64.02
3260;BME280;68938;48.150;14.004;2023-05-22T03:37:29;97755.38;;;17.76;64.03
3260;BME280;68938;48.150;14.004;2023-05-22T03:39:56;97752.22;;;17.71;64.00
3260;BME280;68938;48.150;14.004;2023-05-22T03:42:23;97756.66;;;17.69;64.35
3260;BME280;68938;48.150;14.004;2023-05-22T03:44:50;97747.22;;;17.68;64.34
3260;BME280;68938;48.150;14.004;2023-05-22T03:47:17;97746.38;;;17.67;64.69
3260;BME280;68938;48.150;14.004;2023-05-22T03:49:44;97739.72;;;17.63;64.59
3260;BME280;68938;48.150;14.004;2023-05-22T03:52:11;97749.06;;;17.66;64.16
3260;BME280;68938;48.150;14.004;2023-05-22T03:54:38;97757.59;;;17.68;64.06
3260;BME280;68938;48.150;14.004;2023-05-22T03:57:05;97746.03;;;17.59;64.73
3260;BME280;68938;48.150;14.004;2023-05-22T03:59:32;97758.81;;;17.62;64.63
3260;BME280;68938;48.150;14.004;2023-05-22T04:01:59;97750.28;;;17.60;64.75
3260;BME280;68938;48.150;14.004;2023-05-22T04:04:27;97746.16;;;17.58;64.60
3260;BME280;68938;48.150;14.004;2023-05-22T04:06:54;97745.09;;;17.60;64.85
3260;BME280;68938;48.150;14.004;2023-05-22T04:09:21;97743.56;;;17.58;65.55
3260;BME280;68938;48.150;14.004;2023-05-22T04:11:47;97741.88;;;17.57;65.00
3260;BME280;68938;48.150;14.004;2023-05-22T04:14:14;97741.06;;;17.56;65.44
3260;BME280;68938;48.150;14.004;2023-05-22T04:16:41;97754.56;;;17.61;65.77
3260;BME280;68938;48.150;14.004;2023-05-22T04:19:08;97749.47;;;17.60;66.23
3260;BME280;68938;48.150;14.004;2023-05-22T04:21:36;97748.63;;;17.59;65.91
3260;BME280;68938;48.150;14.004;2023-05-22T04:24:03;97744.00;;;17.64;65.94
3260;BME280;68938;48.150;14.004;2023-05-22T04:26:30;97750.72;;;17.67;66.36
3260;BME280;68938;48.150;14.004;2023-05-22T04:28:56;97747.13;;;17.69;65.92
3260;BME280;68938;48.150;14.004;2023-05-22T04:31:24;97749.22;;;17.77;65.55
3260;BME280;68938;48.150;14.004;2023-05-22T04:33:50;97756.00;;;17.80;66.13
3260;BME280;68938;48.150;14.004;2023-05-22T04:36:17;97752.25;;;17.84;65.85
3260;BME280;68938;48.150;14.004;2023-05-22T04:38:44;97751.13;;;17.88;65.94
3260;BME280;68938;48.150;14.004;2023-05-22T04:41:11;97755.00;;;17.95;65.95
3260;BME280;68938;48.150;14.004;2023-05-22T04:43:38;97755.09;;;17.93;66.63
3260;BME280;68938;48.150;14.004;2023-05-22T04:46:05;97759.88;;;17.99;65.88
3260;BME280;68938;48.150;14.004;2023-05-22T04:48:32;97761.88;;;18.09;66.03
3260;BME280;68938;48.150;14.004;2023-05-22T04:50:59;97757.31;;;18.12;65.85
3260;BME280;68938;48.150;14.004;2023-05-22T04:53:26;97740.59;;;18.16;66.12
3260;BME280;68938;48.150;14.004;2023-05-22T04:55:53;97738.91;;;18.28;65.63
3260;BME280;68938;48.150;14.004;2023-05-22T04:58:20;97742.47;;;18.40;66.12
3260;BME280;68938;48.150;14.004;2023-05-22T05:00:47;97750.34;;;18.51;65.83
3260;BME280;68938;48.150;14.004;2023-05-22T05:03:14;97736.00;;;18.58;66.13
3260;BME280;68938;48.150;14.004;2023-05-22T05:05:41;97747.97;;;18.74;65.93
3260;BME280;68938;48.150;14.004;2023-05-22T05:08:08;97746.78;;;18.90;65.36
3260;BME280;68938;48.150;14.004;2023-05-22T05:10:35;97753.78;;;19.14;65.41
3260;BME280;68938;48.150;14.004;2023-05-22T05:13:03;97753.19;;;19.34;64.78
3260;BME280;68938;48.150;14.004;2023-05-22T05:15:30;97742.88;;;19.46;63.99
3260;BME280;68938;48.150;14.004;2023-05-22T05:17:57;97748.19;;;19.68;64.49
3260;BME280;68938;48.150;14.004;2023-05-22T05:20:24;97758.19;;;19.85;63.47
3260;BME280;68938;48.150;14.004;2023-05-22T05:22:51;97735.41;;;20.00;63.24
3260;BME280;68938;48.150;14.004;2023-05-22T05:25:17;97746.91;;;20.09;62.56
3260;BME280;68938;48.150;14.004;2023-05-22T05:27:44;97735.06;;;20.16;62.71
3260;BME280;68938;48.150;14.004;2023-05-22T05:30:11;97743.66;;;19.94;61.85
3260;BME280;68938;48.150;14.004;2023-05-22T05:32:39;97734.47;;;20.12;61.92
3260;BME280;68938;48.150;14.004;2023-05-22T05:35:06;97738.53;;;20.28;60.98
3260;BME280;68938;48.150;14.004;2023-05-22T05:37:33;97742.25;;;20.59;60.86
3260;BME280;68938;48.150;14.004;2023-05-22T05:40:00;97740.38;;;20.72;60.03
3260;BME280;68938;48.150;14.004;2023-05-22T05:42:27;97751.84;;;21.03;59.75
3260;BME280;68938;48.150;14.004;2023-05-22T05:44:54;97748.81;;;21.19;58.57
3260;BME280;68938;48.150;14.004;2023-05-22T05:47:21;97751.19;;;21.22;58.44
3260;BME280;68938;48.150;14.004;2023-05-22T05:49:48;97744.88;;;21.47;58.71
3260;BME280;68938;48.150;14.004;2023-05-22T05:52:15;97737.84;;;21.59;58.26
3260;BME280;68938;48.150;14.004;2023-05-22T05:54:42;97734.50;;;21.57;57.72
3260;BME280;68938;48.150;14.004;2023-05-22T05:57:09;97739.91;;;21.76;57.79
3260;BME280;68938;48.150;14.004;2023-05-22T05:59:36;97743.16;;;21.90;57.14
3260;BME280;68938;48.150;14.004;2023-05-22T06:02:03;97746.34;;;22.14;57.19
3260;BME280;68938;48.150;14.004;2023-05-22T06:04:30;97735.47;;;22.30;56.12
3260;BME280;68938;48.150;14.004;2023-05-22T06:06:56;97742.06;;;22.55;55.50
3260;BME280;68938;48.150;14.004;2023-05-22T06:09:23;97734.66;;;22.60;54.72
3260;BME280;68938;48.150;14.004;2023-05-22T06:11:50;97735.91;;;22.66;54.33
3260;BME280;68938;48.150;14.004;2023-05-22T06:14:17;97740.31;;;22.65;54.96
3260;BME280;68938;48.150;14.004;2023-05-22T06:16:44;97715.69;;;22.37;55.25
3260;BME280;68938;48.150;14.004;2023-05-22T06:19:11;97724.63;;;22.65;55.49
3260;BME280;68938;48.150;14.004;2023-05-22T06:21:38;97733.66;;;22.92;55.27
3260;BME280;68938;48.150;14.004;2023-05-22T06:24:05;97737.03;;;23.04;55.01
3260;BME280;68938;48.150;14.004;2023-05-22T06:26:32;97729.06;;;23.05;53.89
3260;BME280;68938;48.150;14.004;2023-05-22T06:28:59;97725.91;;;23.31;53.80
3260;BME280;68938;48.150;14.004;2023-05-22T06:31:26;97720.72;;;23.50;53.05
3260;BME280;68938;48.150;14.004;2023-05-22T06:33:53;97713.94;;;23.48;52.47
3260;BME280;68938;48.150;14.004;2023-05-22T06:36:20;97719.06;;;23.78;51.38
3260;BME280;68938;48.150;14.004;2023-05-22T06:38:47;97714.38;;;23.92;51.96
3260;BME280;68938;48.150;14.004;2023-05-22T06:41:14;97716.44;;;23.98;51.70
3260;BME280;68938;48.150;14.004;2023-05-22T06:43:41;97719.06;;;23.88;52.05
3260;BME280;68938;48.150;14.004;2023-05-22T06:46:08;97709.97;;;23.82;51.09
3260;BME280;68938;48.150;14.004;2023-05-22T06:48:35;97719.50;;;23.93;51.59
3260;BME280;68938;48.150;14.004;2023-05-22T06:51:02;97714.09;;;23.95;51.39
3260;BME280;68938;48.150;14.004;2023-05-22T06:53:29;97716.94;;;24.21;51.07
3260;BME280;68938;48.150;14.004;2023-05-22T06:55:56;97718.22;;;24.54;51.14
3260;BME280;68938;48.150;14.004;2023-05-22T06:58:23;97719.81;;;24.74;50.66
3260;BME280;68938;48.150;14.004;2023-05-22T07:00:50;97717.63;;;24.97;49.99
3260;BME280;68938;48.150;14.004;2023-05-22T07:03:17;97720.81;;;25.19;49.41
3260;BME280;68938;48.150;14.004;2023-05-22T07:05:44;97712.31;;;25.35;48.11
3260;BME280;68938;48.150;14.004;2023-05-22T07:08:11;97714.47;;;25.57;47.51
3260;BME280;68938;48.150;14.004;2023-05-22T07:10:38;97704.03;;;25.65;47.34
3260;BME280;68938;48.150;14.004;2023-05-22T07:13:06;97715.75;;;25.89;46.99
3260;BME280;68938;48.150;14.004;2023-05-22T07:15:33;97713.13;;;25.89;46.40
3260;BME280;68938;48.150;14.004;2023-05-22T07:18:00;97713.19;;;25.97;46.18
3260;BME280;68938;48.150;14.004;2023-05-22T07:20:27;97714.91;;;26.06;47.31
3260;BME280;68938;48.150;14.004;2023-05-22T07:22:54;97709.59;;;25.80;46.14
3260;BME280;68938;48.150;14.004;2023-05-22T07:25:21;97711.25;;;25.99;46.13
3260;BME280;68938;48.150;14.004;2023-05-22T07:27:48;97694.94;;;26.21;44.94
3260;BME280;68938;48.150;14.004;2023-05-22T07:30:15;97688.63;;;26.40;45.55
3260;BME280;68938;48.150;14.004;2023-05-22T07:32:42;97693.41;;;26.45;44.15
3260;BME280;68938;48.150;14.004;2023-05-22T07:35:09;97685.31;;;26.64;44.46
3260;BME280;68938;48.150;14.004;2023-05-22T07:37:36;97699.06;;;26.92;44.33
3260;BME280;68938;48.150;14.004;2023-05-22T07:40:04;97695.44;;;26.85;44.22
3260;BME280;68938;48.150;14.004;2023-05-22T07:42:32;97700.03;;;26.83;43.80
3260;BME280;68938;48.150;14.004;2023-05-22T07:45:00;97700.75;;;27.10;43.96
3260;BME280;68938;48.150;14.004;2023-05-22T07:47:27;97697.06;;;27.29;43.51
3260;BME280;68938;48.150;14.004;2023-05-22T07:49:54;97696.41;;;27.51;42.99
3260;BME280;68938;48.150;14.004;2023-05-22T07:52:21;97696.41;;;27.51;42.60
3260;BME280;68938;48.150;14.004;2023-05-22T07:54:48;97692.84;;;27.77;42.30
3260;BME280;68938;48.150;14.004;2023-05-22T07:57:15;97698.91;;;28.02;42.66
3260;BME280;68938;48.150;14.004;2023-05-22T07:59:42;97692.44;;;28.13;41.47
3260;BME280;68938;48.150;14.004;2023-05-22T08:02:09;97687.69;;;28.08;40.65
3260;BME280;68938;48.150;14.004;2023-05-22T08:04:36;97693.28;;;28.21;40.52
3260;BME280;68938;48.150;14.004;2023-05-22T08:07:03;97685.84;;;28.17;40.26
3260;BME280;68938;48.150;14.004;2023-05-22T08:09:30;97694.94;;;28.14;41.22
3260;BME280;68938;48.150;14.004;2023-05-22T08:11:57;97692.38;;;28.37;40.31
3260;BME280;68938;48.150;14.004;2023-05-22T08:14:24;97695.69;;;28.55;39.58
3260;BME280;68938;48.150;14.004;2023-05-22T08:16:51;97691.03;;;28.66;39.29
3260;BME280;68938;48.150;14.004;2023-05-22T08:19:18;97695.78;;;28.70;39.69
3260;BME280;68938;48.150;14.004;2023-05-22T08:21:45;97691.50;;;28.61;39.81
3260;BME280;68938;48.150;14.004;2023-05-22T08:24:12;97695.25;;;28.75;39.56
3260;BME280;68938;48.150;14.004;2023-05-22T08:26:39;97689.47;;;28.79;40.29
3260;BME280;68938;48.150;14.004;2023-05-22T08:29:06;97701.19;;;28.77;39.62
3260;BME280;68938;48.150;14.004;2023-05-22T08:31:33;97694.44;;;28.74;38.93
3260;BME280;68938;48.150;14.004;2023-05-22T08:34:00;97684.94;;;28.96;39.70
3260;BME280;68938;48.150;14.004;2023-05-22T08:36:31;97687.69;;;29.11;39.34
3260;BME280;68938;48.150;14.004;2023-05-22T08:38:58;97687.75;;;29.26;39.95
3260;BME280;68938;48.150;14.004;2023-05-22T08:41:25;97688.31;;;29.36;37.88
3260;BME280;68938;48.150;14.004;2023-05-22T08:43:53;97680.94;;;29.32;36.82
3260;BME280;68938;48.150;14.004;2023-05-22T08:46:22;97684.94;;;29.27;38.83
3260;BME280;68938;48.150;14.004;2023-05-22T08:48:50;97680.47;;;29.28;38.17
3260;BME280;68938;48.150;14.004;2023-05-22T08:51:18;97681.22;;;29.37;37.00
3260;BME280;68938;48.150;14.004;2023-05-22T08:53:47;97680.06;;;29.16;38.05
3260;BME280;68938;48.150;14.004;2023-05-22T08:56:17;97677.88;;;29.43;39.44
3260;BME280;68938;48.150;14.004;2023-05-22T08:58:45;97675.53;;;29.71;38.09
3260;BME280;68938;48.150;14.004;2023-05-22T09:01:12;97670.72;;;29.74;37.49
3260;BME280;68938;48.150;14.004;2023-05-22T09:03:40;97673.75;;;30.01;37.39
3260;BME280;68938;48.150;14.004;2023-05-22T09:06:08;97675.69;;;30.07;37.03
3260;BME280;68938;48.150;14.004;2023-05-22T09:08:36;97669.81;;;30.20;37.35
3260;BME280;68938;48.150;14.004;2023-05-22T09:11:03;97658.59;;;30.33;37.74
3260;BME280;68938;48.150;14.004;2023-05-22T09:13:30;97663.97;;;30.54;35.81
3260;BME280;68938;48.150;14.004;2023-05-22T09:15:59;97672.44;;;30.64;35.28
3260;BME280;68938;48.150;14.004;2023-05-22T09:18:35;97665.97;;;30.82;35.20
3260;BME280;68938;48.150;14.004;2023-05-22T09:21:04;97662.66;;;30.80;35.99
3260;BME280;68938;48.150;14.004;2023-05-22T09:23:58;97663.38;;;30.88;35.29
3260;BME280;68938;48.150;14.004;2023-05-22T09:26:27;97664.88;;;30.76;34.32
3260;BME280;68938;48.150;14.004;2023-05-22T09:28:54;97642.13;;;30.82;33.34
3260;BME280;68938;48.150;14.004;2023-05-22T09:31:20;97659.72;;;30.89;32.79
3260;BME280;68938;48.150;14.004;2023-05-22T09:33:48;97658.41;;;31.00;34.20
3260;BME280;68938;48.150;14.004;2023-05-22T09:36:15;97664.28;;;30.96;33.35
3260;BME280;68938;48.150;14.004;2023-05-22T09:38:42;97662.22;;;31.12;35.13
3260;BME280;68938;48.150;14.004;2023-05-22T09:41:09;97659.56;;;31.12;33.87
3260;BME280;68938;48.150;14.004;2023-05-22T09:43:36;97653.47;;;31.33;34.62
3260;BME280;68938;48.150;14.004;2023-05-22T09:46:03;97661.56;;;31.47;32.76
3260;BME280;68938;48.150;14.004;2023-05-22T09:48:33;97662.66;;;31.59;31.30
3260;BME280;68938;48.150;14.004;2023-05-22T09:51:01;97653.47;;;31.55;32.78
3260;BME280;68938;48.150;14.004;2023-05-22T09:53:31;97658.69;;;31.48;32.65
3260;BME280;68938;48.150;14.004;2023-05-22T09:55:59;97657.19;;;31.60;32.73
3260;BME280;68938;48.150;14.004;2023-05-22T09:58:30;97650.91;;;31.90;31.72
3260;BME280;68938;48.150;14.004;2023-05-22T10:00:59;97645.69;;;32.03;29.92
3260;BME280;68938;48.150;14.004;2023-05-22T10:03:27;97652.69;;;32.11;30.42
3260;BME280;68938;48.150;14.004;2023-05-22T10:05:54;97646.66;;;32.30;29.38
3260;BME280;68938;48.150;14.004;2023-05-22T10:08:34;97642.56;;;32.27;29.53
3260;BME280;68938;48.150;14.004;2023-05-22T10:11:08;97647.66;;;32.22;28.29
3260;BME280;68938;48.150;14.004;2023-05-22T10:13:37;97638.06;;;32.21;27.69
3260;BME280;68938;48.150;14.004;2023-05-22T10:16:07;97642.41;;;32.36;29.81
3260;BME280;68938;48.150;14.004;2023-05-22T10:18:35;97646.31;;;32.40;29.47
3260;BME280;68938;48.150;14.004;2023-05-22T10:21:03;97634.72;;;32.47;29.69
3260;BME280;68938;48.150;14.004;2023-05-22T10:23:31;97637.00;;;32.57;29.47
3260;BME280;68938;48.150;14.004;2023-05-22T10:25:58;97628.59;;;32.47;28.55
3260;BME280;68938;48.150;14.004;2023-05-22T10:28:31;97631.16;;;32.33;26.81
3260;BME280;68938;48.150;14.004;2023-05-22T10:31:40;97634.78;;;32.26;26.08
3260;BME280;68938;48.150;14.004;2023-05-22T10:34:16;97633.09;;;32.46;25.49
3260;BME280;68938;48.150;14.004;2023-05-22T10:40:09;97623.69;;;32.50;24.99
3260;BME280;68938;48.150;14.004;2023-05-22T10:42:39;97623.56;;;32.59;25.56
3260;BME280;68938;48.150;14.004;2023-05-22T10:45:07;97626.69;;;32.89;26.58
3260;BME280;68938;48.150;14.004;2023-05-22T10:47:36;97624.91;;;33.09;26.30
3260;BME280;68938;48.150;14.004;2023-05-22T10:50:09;97625.56;;;33.24;24.00
3260;BME280;68938;48.150;14.004;2023-05-22T10:52:38;97616.94;;;33.02;23.51
3260;BME280;68938;48.150;14.004;2023-05-22T10:55:07;97618.81;;;33.15;24.33
3260;BME280;68938;48.150;14.004;2023-05-22T10:57:38;97608.56;;;33.12;23.48
3260;BME280;68938;48.150;14.004;2023-05-22T11:00:10;97610.66;;;33.23;24.22
3260;BME280;68938;48.150;14.004;2023-05-22T11:02:43;97608.59;;;33.39;24.84
3260;BME280;68938;48.150;14.004;2023-05-22T11:13:23;97598.34;;;33.02;23.52
3260;BME280;68938;48.150;14.004;2023-05-22T11:15:54;97598.34;;;32.96;23.33
3260;BME280;68938;48.150;14.004;2023-05-22T11:18:21;97597.34;;;33.10;23.23
3260;BME280;68938;48.150;14.004;2023-05-22T11:20:49;97598.97;;;33.18;24.58
3260;BME280;68938;48.150;14.004;2023-05-22T11:23:19;97592.84;;;33.31;25.19
3260;BME280;68938;48.150;14.004;2023-05-22T11:25:46;97584.88;;;33.37;24.87
3260;BME280;68938;48.150;14.004;2023-05-22T11:28:13;97595.56;;;33.51;24.36
3260;BME280;68938;48.150;14.004;2023-05-22T11:30:40;97586.91;;;33.29;24.04
3260;BME280;68938;48.150;14.004;2023-05-22T11:33:08;97583.63;;;33.33;23.22
3260;BME280;68938;48.150;14.004;2023-05-22T11:35:35;97582.81;;;33.33;23.25
3260;BME280;68938;48.150;14.004;2023-05-22T11:38:04;97583.34;;;32.88;24.25
3260;BME280;68938;48.150;14.004;2023-05-22T11:40:31;97584.41;;;32.94;24.97
3260;BME280;68938;48.150;14.004;2023-05-22T11:42:58;97584.81;;;32.91;24.76
3260;BME280;68938;48.150;14.004;2023-05-22T11:45:25;97584.44;;;33.00;25.28
3260;BME280;68938;48.150;14.004;2023-05-22T11:47:52;97571.50;;;32.84;25.01
3260;BME280;68938;48.150;14.004;2023-05-22T11:50:20;97575.19;;;32.83;26.12
3260;BME280;68938;48.150;14.004;2023-05-22T11:53:07;97577.84;;;32.83;25.58
3260;BME280;68938;48.150;14.004;2023-05-22T11:55:34;97572.94;;;32.80;25.55
3260;BME280;68938;48.150;14.004;2023-05-22T11:58:01;97574.75;;;32.73;24.75
3260;BME280;68938;48.150;14.004;2023-05-22T12:00:29;97572.69;;;32.68;24.72
3260;BME280;68938;48.150;14.004;2023-05-22T12:02:57;97569.44;;;32.73;25.12
3260;BME280;68938;48.150;14.004;2023-05-22T12:05:24;97564.97;;;32.80;25.16
3260;BME280;68938;48.150;14.004;2023-05-22T12:07:51;97559.66;;;32.80;23.73
3260;BME280;68938;48.150;14.004;2023-05-22T12:10:18;97567.38;;;32.68;24.73
3260;BME280;68938;48.150;14.004;2023-05-22T12:12:46;97566.38;;;32.69;25.43
3260;BME280;68938;48.150;14.004;2023-05-22T12:15:13;97566.97;;;32.78;25.10
3260;BME280;68938;48.150;14.004;2023-05-22T12:17:40;97566.78;;;32.73;24.85
3260;BME280;68938;48.150;14.004;2023-05-22T12:20:11;97563.09;;;32.74;25.61
3260;BME280;68938;48.150;14.004;2023-05-22T12:22:42;97559.66;;;32.87;28.26
3260;BME280;68938;48.150;14.004;2023-05-22T12:25:16;97565.13;;;32.59;27.21
3260;BME280;68938;48.150;14.004;2023-05-22T12:27:44;97559.16;;;32.50;25.91
3260;BME280;68938;48.150;14.004;2023-05-22T12:30:12;97553.25;;;32.61;26.10
3260;BME280;68938;48.150;14.004;2023-05-22T12:32:40;97553.91;;;32.76;25.28
3260;BME280;68938;48.150;14.004;2023-05-22T12:35:16;97548.66;;;32.96;27.24
3260;BME280;68938;48.150;14.004;2023-05-22T12:37:48;97554.19;;;33.21;26.18
3260;BME280;68938;48.150;14.004;2023-05-22T12:40:16;97546.84;;;33.30;25.46
3260;BME280;68938;48.150;14.004;2023-05-22T12:42:43;97556.44;;;33.44;25.02
3260;BME280;68938;48.150;14.004;2023-05-22T12:45:10;97548.47;;;33.58;25.52
3260;BME280;68938;48.150;14.004;2023-05-22T12:47:37;97547.84;;;33.69;25.46
3260;BME280;68938;48.150;14.004;2023-05-22T12:50:05;97540.50;;;33.64;24.99
3260;BME280;68938;48.150;14.004;2023-05-22T12:52:32;97547.19;;;33.73;25.65
3260;BME280;68938;48.150;14.004;2023-05-22T12:54:59;97546.81;;;33.57;25.12
3260;BME280;68938;48.150;14.004;2023-05-22T12:57:26;97553.41;;;33.54;24.38
3260;BME280;68938;48.150;14.004;2023-05-22T12:59:53;97542.13;;;33.65;26.44
3260;BME280;68938;48.150;14.004;2023-05-22T13:02:20;97544.56;;;33.67;24.77
3260;BME280;68938;48.150;14.004;2023-05-22T13:04:47;97542.69;;;33.81;25.11
3260;BME280;68938;48.150;14.004;2023-05-22T13:07:14;97533.00;;;34.00;23.91
3260;BME280;68938;48.150;14.004;2023-05-22T13:09:41;97529.03;;;34.29;25.59
3260;BME280;68938;48.150;14.004;2023-05-22T13:12:08;97535.75;;;34.38;24.61
3260;BME280;68938;48.150;14.004;2023-05-22T13:14:35;97531.50;;;34.30;23.74
3260;BME280;68938;48.150;14.004;2023-05-22T13:17:02;97521.19;;;34.40;23.73
3260;BME280;68938;48.150;14.004;2023-05-22T13:19:29;97518.34;;;34.35;23.88
3260;BME280;68938;48.150;14.004;2023-05-22T13:21:56;97518.91;;;34.44;23.73
3260;BME280;68938;48.150;14.004;2023-05-22T13:24:23;97511.50;;;34.53;23.56
3260;BME280;68938;48.150;14.004;2023-05-22T13:26:50;97517.09;;;34.76;23.95
3260;BME280;68938;48.150;14.004;2023-05-22T13:29:17;97522.19;;;34.84;23.41
3260;BME280;68938;48.150;14.004;2023-05-22T13:31:44;97518.91;;;35.14;23.38
3260;BME280;68938;48.150;14.004;2023-05-22T13:34:11;97513.31;;;35.41;23.99
3260;BME280;68938;48.150;14.004;2023-05-22T13:36:38;97517.53;;;35.30;22.45